This is the latest recevied weather packets stored in our database for station/object K7TSD. If no packets are shown the sender has not sent any weather packets the latest 10 day(s).
| Time | Temp. | Humidity | Pressure | Rain* | Wind** | Luminosity | Snow |
|---|---|---|---|---|---|---|---|
| 1778209817 | 7.22° C | 86% | 1012.3 hPa | 0 mm | - | 0 W/m² | - |
| 1778209514 | 7.22° C | 84% | 1012.3 hPa | 0 mm | - | 0 W/m² | - |
| 1778209213 | 7.22° C | 84% | 1012.7 hPa | 0 mm | - | 0 W/m² | - |
| 1778208908 | 6.67° C | 89% | 1012.4 hPa | 0 mm | - | 0 W/m² | - |
| 1778208605 | 6.67° C | 90% | 1012.4 hPa | 0 mm | - | 0 W/m² | - |
| 1778208301 | 6.67° C | 90% | 1012.5 hPa | 0 mm | - | 0 W/m² | - |
| 1778207998 | 6.67° C | 90% | 1012.4 hPa | 0 mm | - | 0 W/m² | - |
| 1778207695 | 6.67° C | 91% | 1012.7 hPa | 0 mm | - | 0 W/m² | - |
| 1778207392 | 6.67° C | 90% | 1012.5 hPa | 0 mm | - | 0 W/m² | - |
| 1778207088 | 7.22° C | 91% | 1012.4 hPa | 0 mm | - | 0 W/m² | - |
| 1778206784 | 7.22° C | 91% | 1012.4 hPa | 0 mm | - | 0 W/m² | - |
| 1778206481 | 7.22° C | 92% | 1012.7 hPa | 1.27 mm | - | 0 W/m² | - |
| 1778206177 | 7.22° C | 92% | 1012.5 hPa | 1.78 mm | - | 0 W/m² | - |
| 1778205875 | 7.22° C | 90% | 1012.8 hPa | 3.05 mm | - | 0 W/m² | - |
| 1778205572 | 7.78° C | 87% | 1012.5 hPa | 4.32 mm | - | 0 W/m² | - |
| 1778205270 | 8.33° C | 85% | 1012.1 hPa | 3.05 mm | - | 0 W/m² | - |
| 1778204966 | 10° C | 77% | 1012.1 hPa | 0 mm | - | 1 W/m² | - |
| 1778204663 | 11.11° C | 72% | 1012.1 hPa | 0 mm | - | 0 W/m² | - |
| 1778204359 | 11.11° C | 71% | 1011.5 hPa | 0 mm | - | 2 W/m² | - |
| 1778204055 | 11.11° C | 71% | 1011.5 hPa | 0 mm | - | 5 W/m² | - |
| 1778203752 | 11.11° C | 71% | 1011.6 hPa | 0 mm | - | 6 W/m² | - |
| 1778203449 | 11.11° C | 72% | 1011.1 hPa | 0 mm | - | 10 W/m² | - |
| 1778203147 | 11.11° C | 72% | 1011.3 hPa | 0 mm | - | 26 W/m² | - |
| 1778202845 | 11.11° C | 71% | 1011.1 hPa | 0 mm | - | 39 W/m² | - |
| 1778202542 | 11.67° C | 72% | 1011.1 hPa | 0 mm | - | 55 W/m² | - |
* Rain latest hour (hover to see other rain measurements)
** Current wind speed in m/s (hover to see current wind gust speed)